My Meet Scores
Liliana Gemmell, Gym Kinetics Gymnastics - MyMeetScores.com
Top100 | Top Teams | Upcoming Meets | Completed Meets | Latest | Add Scores | Help| Support | Bookmark and Share

Liliana Gemmell, Gym Kinetics Gymnastics
Personal Bests
LevelVault BarsBeamFloorAA
39.4509.275 9.6759.55037.500
49.4009.500 9.6509.20037.675
Scores on America's Top 100as of 01.23.2020
Year Level Vault Bars Beam Floor AA
2020 49.4009.65037.675

Click here to view our exclusive Top 100 Collection
Meet Scores
Date Meet Team Session Level Division Vault Bars Beam Floor AA
2020-01-17 2020 Bravo Classic Gym Kinetics Gymnastics 5B 4 Sr 9.400 2T 9.450 3 9.650 1 9.175 9T 37.675 2
2020-01-10 Leenda's Island Adventure Gym Kinetics Gymnastics PG5 4 11 Year Ol 9.175 4 9.500 2 9.300 4 9.125 5 37.100 4
2019-12-20 Aspire Classic - 2019 Gym Kinetics Gymnastics 8A 4 Older 9.050 2T 8.950 8 9.375 11 9.200 5 36.575 6
2019-12-06 Ultimate Wish Classic Gym Kinetics Gymnastics 2 4 Sr C 9.200 1T 9.400 2 9.600 1 9.075 2 37.275 1
2019-03-22 Illinois Gymnastics State Championships Gym Kinetics Gymnastics 5 4 JR E 8.600 16T 8.750 18T 9.525 1 8.850 15 35.725 10T
2019-03-01 NGCD Academy's 2019 Flip'r Invitational Gym Kinetics Gymnastics 10 4 Jr A 9.300 2 8.900 10 9.400 3 8.725 11 36.325 7
2019-02-23 Kinetic Classic 2019 Gym Kinetics Gymnastics 1 4 Older 8.725 12T 9.000 19T 8.925 20T 8.800 20T 35.450 15
2019-02-08 Midwest Twisters Harley Meet Womens Gym Kinetics Gymnastics T10 4 10b 0.000 13 8.350 4 9.300 2 8.625 7 26.275 11
2019-01-18 2019 Bravo Classic Gym Kinetics Gymnastics 3B 4 Sr 8.775 13T 8.800 10T 9.325 3 8.750 8 35.650 6
2019-01-11 St Jude Benefit Meet Gym Kinetics Gymnastics 6A 4 Sr A 9.250 4 8.300 10 9.050 10 8.875 8 35.475 4T
2018-12-14 2018 Aspire Classic Gym Kinetics Gymnastics 6A 4 Middle 9.000 8T 8.750 14 9.050 17T 9.100 15T 35.900 14T
2018-05-03 Illinois USA Gymnastics Level 3 State Championships Gym Kinetics Gymnastics 1 3 Jr F 9.450 7T 9.250 13 9.400 2 9.400 4T 37.500 4
2018-02-23 Kinetic Classic Gym Kinetics Gymnastics 4 3 Older 9.350 14T 9.000 56T 9.550 6T 9.425 22T 37.325 14
2018-02-09 Arizona Sunrays Classic Rock Invitational Gym Kinetics Gymnastics R02 3 SrA 9.250 5 8.950 7 9.675 2 9.550 2T 37.425 2
2018-02-03 Midwest Games Gym Kinetics Gymnastics 4 3 SR B 9.200 5 8.900 9T 9.400 2 9.350 5T 36.850 3T
2018-01-19 2018 Bravo Classic Gym Kinetics Gymnastics 5B 3 Jr 9.350 6 9.175 10 9.375 1 9.000 11T 36.900 2
2017-12-15 2017 Aspire Classic Gym Kinetics Gymnastics 9A 3 Middle 9.175 10T 8.875 10 9.450 1 9.550 3 37.050 2
2017-03-30 2017 Illinois Level 3 & 5 State Gym Kinetics Gymnastics All 3 Yh F 9.225 20T 9.200 13T 9.475 3T 8.925 16T 36.825 11T
2017-02-24 Kinetic Classic Gym Kinetics Gymnastics 4,5,6,7 3 All Ages 9.125 44T 9.225 27T 9.125 30T 8.700 80T 36.175 38T
2017-02-09 Hal's Harley-Davidson Invite Gym Kinetics Gymnastics S11 3 8 yrs. 9.250 3T 9.075 3T 9.100 2 9.150 4T 36.575 3
2017-01-13 St Jude Benefit Meet Gym Kinetics Gymnastics 7A 3 Jr C 8.950 15 9.200 8 9.025 4 9.000 12T 36.175 9
2016-12-16 2016 Aspire Classic Gym Kinetics Gymnastics 12 3 Middle 8.800 13 9.275 6 7.750 19 9.150 7 34.975 10
Get your scores on
a t-shirt, pin, or hoodie

www.lazysuits.com